sensor_id;sensor_type;location;lat;lon;timestamp;P1;durP1;ratioP1;P2;durP2;ratioP2
13568;SDS011;6856;51.460;7.158;2022-11-15T00:00:52;5.73;;;3.37;;
13568;SDS011;6856;51.460;7.158;2022-11-15T00:03:34;4.63;;;3.53;;
13568;SDS011;6856;51.460;7.158;2022-11-15T00:06:19;5.00;;;3.20;;
13568;SDS011;6856;51.460;7.158;2022-11-15T00:08:59;5.10;;;3.60;;
13568;SDS011;6856;51.460;7.158;2022-11-15T00:11:37;4.87;;;3.80;;
13568;SDS011;6856;51.460;7.158;2022-11-15T00:14:26;5.00;;;3.23;;
13568;SDS011;6856;51.460;7.158;2022-11-15T00:17:15;4.80;;;3.20;;
13568;SDS011;6856;51.460;7.158;2022-11-15T00:19:59;4.53;;;3.30;;
13568;SDS011;6856;51.460;7.158;2022-11-15T00:22:37;5.50;;;4.00;;
13568;SDS011;6856;51.460;7.158;2022-11-15T00:25:31;4.67;;;3.10;;
13568;SDS011;6856;51.460;7.158;2022-11-15T00:28:09;5.13;;;3.33;;
13568;SDS011;6856;51.460;7.158;2022-11-15T00:30:45;4.10;;;3.17;;
13568;SDS011;6856;51.460;7.158;2022-11-15T00:33:26;5.23;;;3.53;;
13568;SDS011;6856;51.460;7.158;2022-11-15T00:36:04;5.20;;;3.80;;
13568;SDS011;6856;51.460;7.158;2022-11-15T00:38:43;5.47;;;3.90;;
13568;SDS011;6856;51.460;7.158;2022-11-15T00:41:21;4.20;;;3.03;;
13568;SDS011;6856;51.460;7.158;2022-11-15T00:44:31;4.10;;;3.27;;
13568;SDS011;6856;51.460;7.158;2022-11-15T00:47:20;5.93;;;3.63;;
13568;SDS011;6856;51.460;7.158;2022-11-15T00:50:05;4.67;;;3.37;;
13568;SDS011;6856;51.460;7.158;2022-11-15T00:53:05;4.10;;;3.10;;
13568;SDS011;6856;51.460;7.158;2022-11-15T00:55:59;4.70;;;3.37;;
13568;SDS011;6856;51.460;7.158;2022-11-15T00:58:42;4.17;;;3.40;;
13568;SDS011;6856;51.460;7.158;2022-11-15T01:01:34;4.40;;;3.13;;
13568;SDS011;6856;51.460;7.158;2022-11-15T01:04:13;4.93;;;3.37;;
13568;SDS011;6856;51.460;7.158;2022-11-15T01:06:56;5.13;;;3.70;;
13568;SDS011;6856;51.460;7.158;2022-11-15T01:09:33;4.13;;;3.47;;
13568;SDS011;6856;51.460;7.158;2022-11-15T01:12:17;4.47;;;3.07;;
13568;SDS011;6856;51.460;7.158;2022-11-15T01:15:16;4.37;;;3.17;;
13568;SDS011;6856;51.460;7.158;2022-11-15T01:18:05;4.87;;;3.17;;
13568;SDS011;6856;51.460;7.158;2022-11-15T01:21:10;3.70;;;2.77;;
13568;SDS011;6856;51.460;7.158;2022-11-15T01:24:15;4.00;;;3.03;;
13568;SDS011;6856;51.460;7.158;2022-11-15T01:26:51;4.80;;;3.23;;
13568;SDS011;6856;51.460;7.158;2022-11-15T01:29:33;3.83;;;2.93;;
13568;SDS011;6856;51.460;7.158;2022-11-15T01:32:26;5.63;;;3.40;;
13568;SDS011;6856;51.460;7.158;2022-11-15T01:35:37;4.20;;;3.07;;
13568;SDS011;6856;51.460;7.158;2022-11-15T01:38:20;3.90;;;2.97;;
13568;SDS011;6856;51.460;7.158;2022-11-15T01:41:11;5.07;;;3.40;;
13568;SDS011;6856;51.460;7.158;2022-11-15T01:47:36;4.50;;;3.00;;
13568;SDS011;6856;51.460;7.158;2022-11-15T01:51:08;4.37;;;3.23;;
13568;SDS011;6856;51.460;7.158;2022-11-15T01:53:53;5.03;;;3.23;;
13568;SDS011;6856;51.460;7.158;2022-11-15T01:56:53;5.30;;;3.50;;
13568;SDS011;6856;51.460;7.158;2022-11-15T02:02:59;3.27;;;2.50;;
13568;SDS011;6856;51.460;7.158;2022-11-15T02:05:45;4.77;;;3.37;;
13568;SDS011;6856;51.460;7.158;2022-11-15T02:08:48;4.23;;;2.90;;
13568;SDS011;6856;51.460;7.158;2022-11-15T02:11:45;3.37;;;2.80;;
13568;SDS011;6856;51.460;7.158;2022-11-15T02:14:30;4.33;;;2.90;;
13568;SDS011;6856;51.460;7.158;2022-11-15T02:17:11;4.30;;;2.90;;
13568;SDS011;6856;51.460;7.158;2022-11-15T02:23:39;3.90;;;2.73;;
13568;SDS011;6856;51.460;7.158;2022-11-15T02:30:40;3.30;;;2.83;;
13568;SDS011;6856;51.460;7.158;2022-11-15T02:33:28;4.03;;;2.60;;
13568;SDS011;6856;51.460;7.158;2022-11-15T02:36:25;4.17;;;2.43;;
13568;SDS011;6856;51.460;7.158;2022-11-15T02:39:57;4.70;;;3.20;;
13568;SDS011;6856;51.460;7.158;2022-11-15T02:42:45;3.50;;;2.77;;
13568;SDS011;6856;51.460;7.158;2022-11-15T02:45:51;4.60;;;3.10;;
13568;SDS011;6856;51.460;7.158;2022-11-15T02:48:50;4.87;;;3.07;;
13568;SDS011;6856;51.460;7.158;2022-11-15T02:51:27;4.73;;;3.37;;
13568;SDS011;6856;51.460;7.158;2022-11-15T02:54:18;4.70;;;3.23;;
13568;SDS011;6856;51.460;7.158;2022-11-15T02:56:59;4.60;;;3.53;;
13568;SDS011;6856;51.460;7.158;2022-11-15T03:00:03;4.83;;;3.13;;
13568;SDS011;6856;51.460;7.158;2022-11-15T03:06:36;4.33;;;2.83;;
13568;SDS011;6856;51.460;7.158;2022-11-15T03:09:17;5.40;;;3.27;;
13568;SDS011;6856;51.460;7.158;2022-11-15T03:12:15;4.27;;;2.93;;
13568;SDS011;6856;51.460;7.158;2022-11-15T03:18:10;5.03;;;3.20;;
13568;SDS011;6856;51.460;7.158;2022-11-15T03:21:02;4.20;;;3.20;;
13568;SDS011;6856;51.460;7.158;2022-11-15T03:24:00;4.63;;;3.20;;
13568;SDS011;6856;51.460;7.158;2022-11-15T03:27:19;4.83;;;3.30;;
13568;SDS011;6856;51.460;7.158;2022-11-15T03:30:06;5.10;;;3.17;;
13568;SDS011;6856;51.460;7.158;2022-11-15T03:32:46;5.90;;;3.53;;
13568;SDS011;6856;51.460;7.158;2022-11-15T03:35:40;4.57;;;3.40;;
13568;SDS011;6856;51.460;7.158;2022-11-15T03:38:29;3.57;;;2.87;;
13568;SDS011;6856;51.460;7.158;2022-11-15T03:41:24;4.30;;;3.03;;
13568;SDS011;6856;51.460;7.158;2022-11-15T03:44:45;4.93;;;3.30;;
13568;SDS011;6856;51.460;7.158;2022-11-15T03:47:34;3.80;;;3.00;;
13568;SDS011;6856;51.460;7.158;2022-11-15T03:50:44;4.83;;;2.80;;
13568;SDS011;6856;51.460;7.158;2022-11-15T03:53:45;5.47;;;3.10;;
13568;SDS011;6856;51.460;7.158;2022-11-15T03:56:30;5.63;;;3.17;;
13568;SDS011;6856;51.460;7.158;2022-11-15T03:59:12;4.70;;;3.40;;
13568;SDS011;6856;51.460;7.158;2022-11-15T04:02:10;4.47;;;3.47;;
13568;SDS011;6856;51.460;7.158;2022-11-15T04:05:11;3.53;;;2.77;;
13568;SDS011;6856;51.460;7.158;2022-11-15T04:07:57;3.27;;;2.47;;
13568;SDS011;6856;51.460;7.158;2022-11-15T04:10:58;3.90;;;2.60;;
13568;SDS011;6856;51.460;7.158;2022-11-15T04:13:34;5.10;;;3.20;;
13568;SDS011;6856;51.460;7.158;2022-11-15T04:16:24;4.20;;;2.90;;
13568;SDS011;6856;51.460;7.158;2022-11-15T04:19:02;4.07;;;2.77;;
13568;SDS011;6856;51.460;7.158;2022-11-15T04:22:01;4.33;;;2.63;;
13568;SDS011;6856;51.460;7.158;2022-11-15T04:24:58;3.77;;;2.73;;
13568;SDS011;6856;51.460;7.158;2022-11-15T04:27:40;3.47;;;2.53;;
13568;SDS011;6856;51.460;7.158;2022-11-15T04:30:17;3.40;;;2.60;;
13568;SDS011;6856;51.460;7.158;2022-11-15T04:32:52;3.93;;;3.07;;
13568;SDS011;6856;51.460;7.158;2022-11-15T04:35:40;3.60;;;2.80;;
13568;SDS011;6856;51.460;7.158;2022-11-15T04:38:49;3.50;;;2.57;;
13568;SDS011;6856;51.460;7.158;2022-11-15T04:41:33;4.20;;;2.80;;
13568;SDS011;6856;51.460;7.158;2022-11-15T04:44:20;3.00;;;2.40;;
13568;SDS011;6856;51.460;7.158;2022-11-15T04:47:16;3.97;;;2.43;;
13568;SDS011;6856;51.460;7.158;2022-11-15T04:50:01;3.57;;;2.77;;
13568;SDS011;6856;51.460;7.158;2022-11-15T04:52:53;3.57;;;2.77;;
13568;SDS011;6856;51.460;7.158;2022-11-15T04:55:36;4.80;;;3.00;;
13568;SDS011;6856;51.460;7.158;2022-11-15T05:01:41;3.30;;;2.73;;
13568;SDS011;6856;51.460;7.158;2022-11-15T05:04:22;5.07;;;2.87;;
13568;SDS011;6856;51.460;7.158;2022-11-15T05:07:01;4.33;;;2.60;;
13568;SDS011;6856;51.460;7.158;2022-11-15T05:09:51;3.23;;;2.50;;
13568;SDS011;6856;51.460;7.158;2022-11-15T05:12:37;3.70;;;2.77;;
13568;SDS011;6856;51.460;7.158;2022-11-15T05:15:31;3.80;;;2.80;;
13568;SDS011;6856;51.460;7.158;2022-11-15T05:18:13;3.33;;;2.80;;
13568;SDS011;6856;51.460;7.158;2022-11-15T05:20:54;4.13;;;3.10;;
13568;SDS011;6856;51.460;7.158;2022-11-15T05:23:33;3.63;;;2.80;;
13568;SDS011;6856;51.460;7.158;2022-11-15T05:26:09;3.50;;;2.73;;
13568;SDS011;6856;51.460;7.158;2022-11-15T05:29:10;3.70;;;3.00;;
13568;SDS011;6856;51.460;7.158;2022-11-15T05:32:01;3.03;;;2.70;;
13568;SDS011;6856;51.460;7.158;2022-11-15T05:34:44;3.53;;;2.83;;
13568;SDS011;6856;51.460;7.158;2022-11-15T05:37:22;4.23;;;2.93;;
13568;SDS011;6856;51.460;7.158;2022-11-15T05:39:58;3.47;;;2.83;;
13568;SDS011;6856;51.460;7.158;2022-11-15T05:42:35;4.53;;;2.73;;
13568;SDS011;6856;51.460;7.158;2022-11-15T05:45:15;5.13;;;3.17;;
13568;SDS011;6856;51.460;7.158;2022-11-15T05:48:09;4.37;;;2.87;;
13568;SDS011;6856;51.460;7.158;2022-11-15T05:50:52;3.80;;;2.97;;
13568;SDS011;6856;51.460;7.158;2022-11-15T05:53:33;5.47;;;2.87;;
13568;SDS011;6856;51.460;7.158;2022-11-15T05:56:17;4.40;;;3.03;;
13568;SDS011;6856;51.460;7.158;2022-11-15T05:59:14;4.63;;;3.00;;
13568;SDS011;6856;51.460;7.158;2022-11-15T06:02:07;4.77;;;2.57;;
13568;SDS011;6856;51.460;7.158;2022-11-15T06:04:46;4.00;;;2.90;;
13568;SDS011;6856;51.460;7.158;2022-11-15T06:07:24;4.50;;;2.93;;
13568;SDS011;6856;51.460;7.158;2022-11-15T06:10:19;3.80;;;2.80;;
13568;SDS011;6856;51.460;7.158;2022-11-15T06:12:56;3.97;;;3.13;;
13568;SDS011;6856;51.460;7.158;2022-11-15T06:15:38;3.77;;;2.80;;
13568;SDS011;6856;51.460;7.158;2022-11-15T06:18:34;2.83;;;2.40;;
13568;SDS011;6856;51.460;7.158;2022-11-15T06:21:26;2.97;;;2.60;;
13568;SDS011;6856;51.460;7.158;2022-11-15T06:24:15;3.97;;;2.70;;
13568;SDS011;6856;51.460;7.158;2022-11-15T06:27:06;4.40;;;3.07;;
13568;SDS011;6856;51.460;7.158;2022-11-15T06:30:03;3.70;;;2.60;;
13568;SDS011;6856;51.460;7.158;2022-11-15T06:33:15;2.43;;;1.97;;
13568;SDS011;6856;51.460;7.158;2022-11-15T06:36:14;2.60;;;1.90;;
13568;SDS011;6856;51.460;7.158;2022-11-15T06:42:20;2.93;;;2.00;;
13568;SDS011;6856;51.460;7.158;2022-11-15T06:45:10;2.40;;;1.83;;
13568;SDS011;6856;51.460;7.158;2022-11-15T06:47:47;2.73;;;1.80;;
13568;SDS011;6856;51.460;7.158;2022-11-15T06:50:33;3.03;;;1.90;;
13568;SDS011;6856;51.460;7.158;2022-11-15T06:53:18;2.67;;;2.07;;
13568;SDS011;6856;51.460;7.158;2022-11-15T06:56:03;2.50;;;1.70;;
13568;SDS011;6856;51.460;7.158;2022-11-15T06:59:01;2.13;;;1.53;;
13568;SDS011;6856;51.460;7.158;2022-11-15T07:01:45;3.10;;;2.00;;
13568;SDS011;6856;51.460;7.158;2022-11-15T07:04:38;2.07;;;1.70;;
13568;SDS011;6856;51.460;7.158;2022-11-15T07:07:21;2.00;;;1.50;;
13568;SDS011;6856;51.460;7.158;2022-11-15T07:10:20;2.13;;;1.67;;
13568;SDS011;6856;51.460;7.158;2022-11-15T07:13:05;2.23;;;1.80;;
13568;SDS011;6856;51.460;7.158;2022-11-15T07:15:55;1.97;;;1.60;;
13568;SDS011;6856;51.460;7.158;2022-11-15T07:18:47;1.90;;;1.70;;
13568;SDS011;6856;51.460;7.158;2022-11-15T07:21:44;1.57;;;1.37;;
13568;SDS011;6856;51.460;7.158;2022-11-15T07:24:31;1.77;;;1.50;;
13568;SDS011;6856;51.460;7.158;2022-11-15T07:27:30;1.97;;;1.50;;
13568;SDS011;6856;51.460;7.158;2022-11-15T07:30:39;1.77;;;1.50;;
13568;SDS011;6856;51.460;7.158;2022-11-15T07:33:40;1.83;;;1.40;;
13568;SDS011;6856;51.460;7.158;2022-11-15T07:40:10;1.40;;;1.13;;
13568;SDS011;6856;51.460;7.158;2022-11-15T07:43:09;1.83;;;1.17;;
13568;SDS011;6856;51.460;7.158;2022-11-15T07:46:11;2.17;;;1.17;;
13568;SDS011;6856;51.460;7.158;2022-11-15T07:48:56;2.00;;;1.30;;
13568;SDS011;6856;51.460;7.158;2022-11-15T07:51:42;1.70;;;1.17;;
13568;SDS011;6856;51.460;7.158;2022-11-15T07:54:41;1.93;;;1.17;;
13568;SDS011;6856;51.460;7.158;2022-11-15T07:57:38;2.10;;;1.63;;
13568;SDS011;6856;51.460;7.158;2022-11-15T08:00:34;2.47;;;1.20;;
13568;SDS011;6856;51.460;7.158;2022-11-15T08:03:51;1.13;;;1.00;;
13568;SDS011;6856;51.460;7.158;2022-11-15T08:06:54;1.93;;;1.20;;
13568;SDS011;6856;51.460;7.158;2022-11-15T08:09:45;1.63;;;1.30;;
13568;SDS011;6856;51.460;7.158;2022-11-15T08:12:31;1.30;;;1.07;;
13568;SDS011;6856;51.460;7.158;2022-11-15T08:15:10;1.30;;;1.20;;
13568;SDS011;6856;51.460;7.158;2022-11-15T08:18:01;1.43;;;1.10;;
13568;SDS011;6856;51.460;7.158;2022-11-15T08:20:51;1.70;;;1.10;;
13568;SDS011;6856;51.460;7.158;2022-11-15T08:23:33;2.87;;;1.23;;
13568;SDS011;6856;51.460;7.158;2022-11-15T08:26:08;2.27;;;1.37;;
13568;SDS011;6856;51.460;7.158;2022-11-15T08:28:53;2.00;;;1.40;;
13568;SDS011;6856;51.460;7.158;2022-11-15T08:31:32;1.67;;;1.10;;
13568;SDS011;6856;51.460;7.158;2022-11-15T08:34:16;2.33;;;1.47;;
13568;SDS011;6856;51.460;7.158;2022-11-15T08:36:58;1.63;;;1.13;;
13568;SDS011;6856;51.460;7.158;2022-11-15T08:39:40;2.20;;;1.10;;
13568;SDS011;6856;51.460;7.158;2022-11-15T08:42:18;1.33;;;1.10;;
13568;SDS011;6856;51.460;7.158;2022-11-15T08:45:02;1.10;;;1.00;;
13568;SDS011;6856;51.460;7.158;2022-11-15T08:47:41;3.00;;;1.10;;
13568;SDS011;6856;51.460;7.158;2022-11-15T08:50:25;2.17;;;1.40;;
13568;SDS011;6856;51.460;7.158;2022-11-15T08:53:14;1.30;;;1.10;;
13568;SDS011;6856;51.460;7.158;2022-11-15T08:55:49;1.50;;;1.07;;
13568;SDS011;6856;51.460;7.158;2022-11-15T08:58:36;2.00;;;1.20;;
13568;SDS011;6856;51.460;7.158;2022-11-15T09:01:15;1.67;;;1.10;;
13568;SDS011;6856;51.460;7.158;2022-11-15T09:03:58;1.00;;;0.90;;
13568;SDS011;6856;51.460;7.158;2022-11-15T09:06:36;1.23;;;1.00;;
13568;SDS011;6856;51.460;7.158;2022-11-15T09:09:18;0.90;;;0.90;;
13568;SDS011;6856;51.460;7.158;2022-11-15T09:12:03;1.67;;;1.10;;
13568;SDS011;6856;51.460;7.158;2022-11-15T09:14:50;1.13;;;1.00;;
13568;SDS011;6856;51.460;7.158;2022-11-15T09:17:26;1.33;;;0.90;;
13568;SDS011;6856;51.460;7.158;2022-11-15T09:20:03;2.83;;;1.00;;
13568;SDS011;6856;51.460;7.158;2022-11-15T09:22:43;1.83;;;1.00;;
13568;SDS011;6856;51.460;7.158;2022-11-15T09:25:24;2.07;;;0.90;;
13568;SDS011;6856;51.460;7.158;2022-11-15T09:28:00;1.03;;;0.87;;
13568;SDS011;6856;51.460;7.158;2022-11-15T09:30:39;1.10;;;0.90;;
13568;SDS011;6856;51.460;7.158;2022-11-15T09:33:17;2.07;;;0.90;;
13568;SDS011;6856;51.460;7.158;2022-11-15T09:35:52;0.87;;;0.83;;
13568;SDS011;6856;51.460;7.158;2022-11-15T09:38:28;1.60;;;0.90;;
13568;SDS011;6856;51.460;7.158;2022-11-15T09:44:20;1.57;;;0.80;;
13568;SDS011;6856;51.460;7.158;2022-11-15T09:47:40;1.00;;;0.83;;
13568;SDS011;6856;51.460;7.158;2022-11-15T09:51:02;1.87;;;0.90;;
13568;SDS011;6856;51.460;7.158;2022-11-15T09:53:42;1.97;;;0.80;;
13568;SDS011;6856;51.460;7.158;2022-11-15T09:56:56;1.23;;;0.90;;
13568;SDS011;6856;51.460;7.158;2022-11-15T09:59:53;1.27;;;0.80;;
13568;SDS011;6856;51.460;7.158;2022-11-15T10:03:15;2.43;;;1.07;;
13568;SDS011;6856;51.460;7.158;2022-11-15T10:06:18;0.90;;;0.80;;
13568;SDS011;6856;51.460;7.158;2022-11-15T10:09:05;0.93;;;0.80;;
13568;SDS011;6856;51.460;7.158;2022-11-15T10:12:14;0.90;;;0.70;;
13568;SDS011;6856;51.460;7.158;2022-11-15T10:14:58;1.57;;;0.73;;
13568;SDS011;6856;51.460;7.158;2022-11-15T10:18:05;1.43;;;0.97;;
13568;SDS011;6856;51.460;7.158;2022-11-15T10:21:37;0.80;;;0.70;;
13568;SDS011;6856;51.460;7.158;2022-11-15T10:24:40;2.37;;;0.90;;
13568;SDS011;6856;51.460;7.158;2022-11-15T10:27:24;1.10;;;0.77;;
13568;SDS011;6856;51.460;7.158;2022-11-15T10:30:17;1.03;;;0.70;;
13568;SDS011;6856;51.460;7.158;2022-11-15T10:33:18;1.00;;;0.73;;
13568;SDS011;6856;51.460;7.158;2022-11-15T10:36:23;1.17;;;0.60;;
13568;SDS011;6856;51.460;7.158;2022-11-15T10:39:10;0.73;;;0.70;;
13568;SDS011;6856;51.460;7.158;2022-11-15T10:41:49;0.73;;;0.60;;
13568;SDS011;6856;51.460;7.158;2022-11-15T10:44:45;1.20;;;0.70;;
13568;SDS011;6856;51.460;7.158;2022-11-15T10:47:27;1.13;;;0.80;;
13568;SDS011;6856;51.460;7.158;2022-11-15T10:50:33;1.37;;;0.70;;
13568;SDS011;6856;51.460;7.158;2022-11-15T10:53:19;1.17;;;0.80;;
13568;SDS011;6856;51.460;7.158;2022-11-15T10:56:01;1.40;;;0.80;;
13568;SDS011;6856;51.460;7.158;2022-11-15T10:58:54;1.20;;;0.63;;
13568;SDS011;6856;51.460;7.158;2022-11-15T11:04:41;1.13;;;0.83;;
13568;SDS011;6856;51.460;7.158;2022-11-15T11:07:30;1.90;;;0.80;;
13568;SDS011;6856;51.460;7.158;2022-11-15T11:10:17;1.87;;;0.90;;
13568;SDS011;6856;51.460;7.158;2022-11-15T11:13:21;0.50;;;0.50;;
13568;SDS011;6856;51.460;7.158;2022-11-15T11:16:05;0.90;;;0.70;;
13568;SDS011;6856;51.460;7.158;2022-11-15T11:19:20;1.23;;;0.90;;
13568;SDS011;6856;51.460;7.158;2022-11-15T11:22:38;0.90;;;0.60;;
13568;SDS011;6856;51.460;7.158;2022-11-15T11:25:47;1.63;;;0.70;;
13568;SDS011;6856;51.460;7.158;2022-11-15T11:28:38;0.63;;;0.57;;
13568;SDS011;6856;51.460;7.158;2022-11-15T11:31:30;1.30;;;0.90;;
13568;SDS011;6856;51.460;7.158;2022-11-15T11:34:33;2.07;;;0.73;;
13568;SDS011;6856;51.460;7.158;2022-11-15T11:37:35;0.70;;;0.70;;
13568;SDS011;6856;51.460;7.158;2022-11-15T11:40:30;1.13;;;0.70;;
13568;SDS011;6856;51.460;7.158;2022-11-15T11:43:47;0.73;;;0.63;;
13568;SDS011;6856;51.460;7.158;2022-11-15T11:51:01;0.77;;;0.60;;
13568;SDS011;6856;51.460;7.158;2022-11-15T11:55:05;1.80;;;0.60;;
13568;SDS011;6856;51.460;7.158;2022-11-15T12:06:06;0.60;;;0.60;;
13568;SDS011;6856;51.460;7.158;2022-11-15T12:09:17;1.10;;;0.50;;
13568;SDS011;6856;51.460;7.158;2022-11-15T12:12:27;0.50;;;0.50;;
13568;SDS011;6856;51.460;7.158;2022-11-15T12:15:26;0.80;;;0.60;;
13568;SDS011;6856;51.460;7.158;2022-11-15T12:19:08;1.23;;;0.60;;
13568;SDS011;6856;51.460;7.158;2022-11-15T12:22:03;0.60;;;0.60;;
13568;SDS011;6856;51.460;7.158;2022-11-15T12:25:16;1.33;;;0.80;;
13568;SDS011;6856;51.460;7.158;2022-11-15T12:29:10;0.70;;;0.60;;
13568;SDS011;6856;51.460;7.158;2022-11-15T12:32:18;0.63;;;0.60;;
13568;SDS011;6856;51.460;7.158;2022-11-15T12:35:21;0.77;;;0.50;;
13568;SDS011;6856;51.460;7.158;2022-11-15T12:38:48;0.40;;;0.40;;
13568;SDS011;6856;51.460;7.158;2022-11-15T12:41:44;1.40;;;0.60;;
13568;SDS011;6856;51.460;7.158;2022-11-15T12:55:32;1.97;;;0.53;;
13568;SDS011;6856;51.460;7.158;2022-11-15T12:58:24;1.30;;;0.70;;
13568;SDS011;6856;51.460;7.158;2022-11-15T13:04:42;0.90;;;0.70;;
13568;SDS011;6856;51.460;7.158;2022-11-15T13:10:42;1.93;;;0.67;;
13568;SDS011;6856;51.460;7.158;2022-11-15T13:13:47;0.87;;;0.50;;
13568;SDS011;6856;51.460;7.158;2022-11-15T13:16:34;0.80;;;0.60;;
13568;SDS011;6856;51.460;7.158;2022-11-15T13:19:20;1.87;;;0.60;;
13568;SDS011;6856;51.460;7.158;2022-11-15T13:28:51;1.57;;;0.90;;
13568;SDS011;6856;51.460;7.158;2022-11-15T13:31:40;1.93;;;0.80;;
13568;SDS011;6856;51.460;7.158;2022-11-15T13:34:26;0.60;;;0.50;;
13568;SDS011;6856;51.460;7.158;2022-11-15T13:37:28;1.67;;;0.70;;
13568;SDS011;6856;51.460;7.158;2022-11-15T13:40:16;0.83;;;0.57;;
13568;SDS011;6856;51.460;7.158;2022-11-15T13:43:17;3.40;;;0.87;;
13568;SDS011;6856;51.460;7.158;2022-11-15T13:46:11;0.90;;;0.57;;
13568;SDS011;6856;51.460;7.158;2022-11-15T13:49:00;1.73;;;0.80;;
13568;SDS011;6856;51.460;7.158;2022-11-15T13:52:09;2.23;;;0.60;;
13568;SDS011;6856;51.460;7.158;2022-11-15T13:54:59;0.47;;;0.47;;
13568;SDS011;6856;51.460;7.158;2022-11-15T13:57:58;2.47;;;0.60;;
13568;SDS011;6856;51.460;7.158;2022-11-15T14:01:16;1.93;;;0.80;;
13568;SDS011;6856;51.460;7.158;2022-11-15T14:03:58;1.10;;;0.50;;
13568;SDS011;6856;51.460;7.158;2022-11-15T14:06:52;1.50;;;0.70;;
13568;SDS011;6856;51.460;7.158;2022-11-15T14:10:02;2.40;;;0.70;;
13568;SDS011;6856;51.460;7.158;2022-11-15T14:13:26;2.30;;;0.93;;
13568;SDS011;6856;51.460;7.158;2022-11-15T14:19:43;2.53;;;0.80;;
13568;SDS011;6856;51.460;7.158;2022-11-15T14:23:25;1.33;;;0.70;;
13568;SDS011;6856;51.460;7.158;2022-11-15T14:26:40;1.93;;;0.80;;
13568;SDS011;6856;51.460;7.158;2022-11-15T14:29:54;1.27;;;0.70;;
13568;SDS011;6856;51.460;7.158;2022-11-15T14:32:46;0.87;;;0.80;;
13568;SDS011;6856;51.460;7.158;2022-11-15T14:35:30;1.77;;;0.90;;
13568;SDS011;6856;51.460;7.158;2022-11-15T14:38:24;1.23;;;0.80;;
13568;SDS011;6856;51.460;7.158;2022-11-15T14:41:14;1.00;;;0.73;;
13568;SDS011;6856;51.460;7.158;2022-11-15T14:44:12;1.97;;;1.03;;
13568;SDS011;6856;51.460;7.158;2022-11-15T14:51:24;1.13;;;0.90;;
13568;SDS011;6856;51.460;7.158;2022-11-15T14:54:41;1.67;;;1.10;;
13568;SDS011;6856;51.460;7.158;2022-11-15T14:57:29;1.77;;;1.00;;
13568;SDS011;6856;51.460;7.158;2022-11-15T15:01:24;2.27;;;1.33;;
13568;SDS011;6856;51.460;7.158;2022-11-15T15:19:05;1.47;;;1.03;;
13568;SDS011;6856;51.460;7.158;2022-11-15T15:21:40;1.47;;;1.20;;
13568;SDS011;6856;51.460;7.158;2022-11-15T15:24:17;1.73;;;1.13;;
13568;SDS011;6856;51.460;7.158;2022-11-15T15:27:07;1.60;;;1.10;;
13568;SDS011;6856;51.460;7.158;2022-11-15T15:29:41;1.70;;;1.17;;
13568;SDS011;6856;51.460;7.158;2022-11-15T15:32:15;1.73;;;1.13;;
13568;SDS011;6856;51.460;7.158;2022-11-15T15:35:00;2.13;;;1.23;;
13568;SDS011;6856;51.460;7.158;2022-11-15T15:37:36;1.87;;;1.07;;
13568;SDS011;6856;51.460;7.158;2022-11-15T15:40:16;1.50;;;1.03;;
13568;SDS011;6856;51.460;7.158;2022-11-15T15:43:04;1.83;;;1.27;;
13568;SDS011;6856;51.460;7.158;2022-11-15T15:46:12;2.00;;;1.20;;
13568;SDS011;6856;51.460;7.158;2022-11-15T15:48:49;1.23;;;1.03;;
13568;SDS011;6856;51.460;7.158;2022-11-15T15:54:18;2.10;;;1.60;;
13568;SDS011;6856;51.460;7.158;2022-11-15T15:56:58;3.10;;;1.37;;
13568;SDS011;6856;51.460;7.158;2022-11-15T15:59:40;1.77;;;1.07;;
13568;SDS011;6856;51.460;7.158;2022-11-15T16:02:18;3.53;;;1.43;;
13568;SDS011;6856;51.460;7.158;2022-11-15T16:04:57;1.80;;;1.10;;
13568;SDS011;6856;51.460;7.158;2022-11-15T16:10:38;2.33;;;1.30;;
13568;SDS011;6856;51.460;7.158;2022-11-15T16:13:12;2.43;;;1.13;;
13568;SDS011;6856;51.460;7.158;2022-11-15T16:15:49;1.80;;;1.33;;
13568;SDS011;6856;51.460;7.158;2022-11-15T16:18:35;2.33;;;1.30;;
13568;SDS011;6856;51.460;7.158;2022-11-15T16:21:12;1.50;;;1.13;;
13568;SDS011;6856;51.460;7.158;2022-11-15T16:24:10;3.00;;;1.40;;
13568;SDS011;6856;51.460;7.158;2022-11-15T16:27:05;1.80;;;1.30;;
13568;SDS011;6856;51.460;7.158;2022-11-15T16:29:56;2.27;;;1.40;;
13568;SDS011;6856;51.460;7.158;2022-11-15T16:32:37;1.50;;;1.10;;
13568;SDS011;6856;51.460;7.158;2022-11-15T16:35:12;2.03;;;1.50;;
13568;SDS011;6856;51.460;7.158;2022-11-15T16:37:51;1.40;;;1.10;;
13568;SDS011;6856;51.460;7.158;2022-11-15T16:40:32;2.03;;;1.40;;
13568;SDS011;6856;51.460;7.158;2022-11-15T16:43:07;1.77;;;1.23;;
13568;SDS011;6856;51.460;7.158;2022-11-15T16:45:44;1.70;;;1.20;;
13568;SDS011;6856;51.460;7.158;2022-11-15T16:48:29;2.57;;;1.27;;
13568;SDS011;6856;51.460;7.158;2022-11-15T16:51:06;1.60;;;1.10;;
13568;SDS011;6856;51.460;7.158;2022-11-15T16:53:58;1.10;;;1.00;;
13568;SDS011;6856;51.460;7.158;2022-11-15T16:56:58;1.97;;;1.20;;
13568;SDS011;6856;51.460;7.158;2022-11-15T17:00:00;2.17;;;1.30;;
13568;SDS011;6856;51.460;7.158;2022-11-15T17:02:42;1.23;;;1.10;;
13568;SDS011;6856;51.460;7.158;2022-11-15T17:05:38;3.43;;;1.37;;
13568;SDS011;6856;51.460;7.158;2022-11-15T17:08:14;1.40;;;1.10;;
13568;SDS011;6856;51.460;7.158;2022-11-15T17:10:55;1.77;;;1.30;;
13568;SDS011;6856;51.460;7.158;2022-11-15T17:13:34;2.20;;;1.13;;
13568;SDS011;6856;51.460;7.158;2022-11-15T17:16:32;2.07;;;1.00;;
13568;SDS011;6856;51.460;7.158;2022-11-15T17:19:17;1.23;;;1.10;;
13568;SDS011;6856;51.460;7.158;2022-11-15T17:22:02;1.17;;;1.00;;
13568;SDS011;6856;51.460;7.158;2022-11-15T17:24:42;1.43;;;1.10;;
13568;SDS011;6856;51.460;7.158;2022-11-15T17:27:37;1.77;;;1.20;;
13568;SDS011;6856;51.460;7.158;2022-11-15T17:34:19;1.67;;;1.23;;
13568;SDS011;6856;51.460;7.158;2022-11-15T17:37:04;1.33;;;1.20;;
13568;SDS011;6856;51.460;7.158;2022-11-15T17:39:55;1.33;;;1.00;;
13568;SDS011;6856;51.460;7.158;2022-11-15T17:42:52;2.30;;;1.27;;
13568;SDS011;6856;51.460;7.158;2022-11-15T17:45:56;1.47;;;1.20;;
13568;SDS011;6856;51.460;7.158;2022-11-15T17:48:34;2.00;;;1.07;;
13568;SDS011;6856;51.460;7.158;2022-11-15T17:51:18;2.03;;;1.20;;
13568;SDS011;6856;51.460;7.158;2022-11-15T17:54:30;1.43;;;1.10;;
13568;SDS011;6856;51.460;7.158;2022-11-15T17:57:09;1.17;;;1.07;;
13568;SDS011;6856;51.460;7.158;2022-11-15T17:59:53;2.10;;;1.10;;
13568;SDS011;6856;51.460;7.158;2022-11-15T18:06:34;2.10;;;1.07;;
13568;SDS011;6856;51.460;7.158;2022-11-15T18:09:20;2.57;;;1.30;;
13568;SDS011;6856;51.460;7.158;2022-11-15T18:12:15;1.23;;;1.13;;
13568;SDS011;6856;51.460;7.158;2022-11-15T18:15:02;1.73;;;1.33;;
13568;SDS011;6856;51.460;7.158;2022-11-15T18:17:45;1.40;;;1.30;;
13568;SDS011;6856;51.460;7.158;2022-11-15T18:20:21;2.33;;;1.60;;
13568;SDS011;6856;51.460;7.158;2022-11-15T18:23:15;2.07;;;1.30;;
13568;SDS011;6856;51.460;7.158;2022-11-15T18:25:52;2.00;;;1.23;;
13568;SDS011;6856;51.460;7.158;2022-11-15T18:28:28;1.77;;;1.30;;
13568;SDS011;6856;51.460;7.158;2022-11-15T18:31:14;1.60;;;1.17;;
13568;SDS011;6856;51.460;7.158;2022-11-15T18:34:07;1.63;;;1.47;;
13568;SDS011;6856;51.460;7.158;2022-11-15T18:36:58;2.00;;;1.20;;
13568;SDS011;6856;51.460;7.158;2022-11-15T18:39:43;2.53;;;1.30;;
13568;SDS011;6856;51.460;7.158;2022-11-15T18:42:24;3.07;;;1.30;;
13568;SDS011;6856;51.460;7.158;2022-11-15T18:45:12;1.73;;;1.30;;
13568;SDS011;6856;51.460;7.158;2022-11-15T18:48:05;2.03;;;1.13;;
13568;SDS011;6856;51.460;7.158;2022-11-15T18:51:09;1.80;;;1.37;;
13568;SDS011;6856;51.460;7.158;2022-11-15T18:53:47;1.67;;;1.07;;
13568;SDS011;6856;51.460;7.158;2022-11-15T18:56:47;2.10;;;1.10;;
13568;SDS011;6856;51.460;7.158;2022-11-15T19:00:29;1.87;;;1.37;;
13568;SDS011;6856;51.460;7.158;2022-11-15T19:03:06;1.67;;;1.20;;
13568;SDS011;6856;51.460;7.158;2022-11-15T19:06:02;2.10;;;1.47;;
13568;SDS011;6856;51.460;7.158;2022-11-15T19:12:28;1.43;;;1.20;;
13568;SDS011;6856;51.460;7.158;2022-11-15T19:15:09;2.07;;;1.53;;
13568;SDS011;6856;51.460;7.158;2022-11-15T19:17:57;1.13;;;1.03;;
13568;SDS011;6856;51.460;7.158;2022-11-15T19:20:54;1.40;;;1.20;;